Latest Weather Observations for Rhyll

IDV60901

Issued at 8:31 am EST Monday 27 April 2015 (issued every 10 minutes, with the page automatically refreshed every 10 minutes)

About weather observations | Map of Melbourne area stations | Latest observations for Melbourne area | Other Formats
Station Details ID: 086373 Name: RHYLL Lat: -38.46 Lon: 145.31 Height: 13.4 m
Data from the previous 72 hours. | See also: Recent months at Rhyll
Date/Time
EST
Tmp

°C
App
Tmp
°C
Dew
Point
°C
Rel
Hum
%
Delta-T

°C
Wind Press
QNH
hPa
Press
MSL
hPa
Rain
since
9 am
mm
Dir
 
Spd
km/h
Gust
km/h
Spd
kts
Gust
kts
27/08:30am 11.5 9.4 9.8 89 0.9 WSW 11 24 6 13 1022.4 1022.4 3.8
27/08:00am 11.8 10.6 9.4 85 1.2 WSW 6 7 3 4 1022.3 1022.3 2.8
27/07:30am 11.4 9.1 9.1 86 1.1 W 11 17 6 9 1021.8 1021.8 2.8
27/07:00am 12.3 10.8 8.6 78 1.8 SW 6 11 3 6 1021.2 1021.2 2.8
27/06:30am 12.6 10.5 8.1 74 2.2 SSW 9 15 5 8 1021.0 1021.0 2.8
27/06:00am 12.5 8.7 9.1 80 1.7 SW 19 28 10 15 1020.8 1020.8 2.8
27/05:30am 12.9 9.8 7.4 69 2.7 SW 13 20 7 11 1020.6 1020.6 2.8
27/05:00am 12.4 9.9 8.3 76 2.0 SW 11 19 6 10 1020.4 1020.4 2.8
27/04:30am 12.4 8.8 8.3 76 2.0 SW 17 33 9 18 1020.2 1020.2 2.8
27/04:00am 12.9 10.4 8.0 72 2.4 SW 11 19 6 10 1020.0 1020.0 2.8
27/03:30am 13.1 10.1 7.5 69 2.7 SW 13 24 7 13 1019.8 1019.8 2.8
27/03:00am 13.5 8.7 7.5 67 2.9 SSW 22 37 12 20 1019.7 1019.7 2.8
27/02:30am 13.4 9.7 7.8 69 2.8 SW 17 30 9 16 1019.7 1019.7 2.8
27/02:00am 13.4 9.0 7.4 67 2.9 SW 20 33 11 18 1019.6 1019.6 2.8
27/01:30am 13.3 9.8 8.8 74 2.3 SW 17 28 9 15 1019.7 1019.7 2.8
27/01:00am 13.1 10.1 9.4 78 1.9 SW 15 28 8 15 1019.6 1019.6 2.8
27/12:30am 12.3 9.4 9.7 84 1.3 SW 15 22 8 12 1019.7 1019.7 2.8
27/12:00am 12.8 9.8 9.1 78 1.9 SW 15 26 8 14 1019.6 1019.6 2.8
 
Date/Time
EST
Tmp

°C
App
Tmp
°C
Dew
Point
°C
Rel
Hum
%
Delta-T

°C
Wind Press
QNH
hPa
Press
MSL
hPa
Rain
since
9 am
mm
Dir
 
Spd
km/h
Gust
km/h
Spd
kts
Gust
kts
26/11:30pm 12.4 9.6 10.0 85 1.2 SW 15 24 8 13 1019.6 1019.6 2.8
26/11:00pm 12.2 9.2 9.4 83 1.4 WSW 15 26 8 14 1019.8 1019.8 2.8
26/10:30pm 11.8 9.4 9.9 88 1.0 WSW 13 26 7 14 1019.8 1019.8 2.8
26/10:00pm 12.1 10.4 9.8 86 1.2 WSW 9 20 5 11 1019.9 1019.9 2.2
26/09:30pm 12.1 8.4 10.3 89 0.9 SW 20 32 11 17 1019.9 1019.9 2.0
26/09:15pm 12.8 10.1 10.5 86 1.2 WSW 15 39 8 21 1019.8 1019.8 2.0
26/09:00pm 12.3 10.3 10.0 86 1.2 WSW 11 20 6 11 1019.8 1019.8 2.0
26/08:30pm 13.3 10.6 9.0 75 2.2 SW 13 26 7 14 1019.7 1019.7 0.6
26/08:00pm 12.9 10.4 8.4 74 2.2 WSW 11 20 6 11 1019.6 1019.6 0.6
26/07:30pm 13.0 9.9 8.9 76 2.1 WSW 15 32 8 17 1019.7 1019.7 0.6
26/07:00pm 13.4 10.9 8.0 70 2.7 WSW 11 20 6 11 1019.6 1019.6 0.6
26/06:30pm 13.9 10.7 8.3 69 2.8 SW 15 28 8 15 1019.3 1019.3 0.6
26/06:00pm 13.9 10.0 7.0 63 3.3 WSW 17 30 9 16 1019.0 1019.0 0.6
26/05:30pm 13.4 10.5 8.3 71 2.5 WSW 13 28 7 15 1018.8 1018.8 0.6
26/05:00pm 13.4 10.2 8.3 71 2.5 WSW 15 28 8 15 1018.6 1018.6 0.6
26/04:30pm 13.4 9.7 8.0 70 2.7 WSW 17 26 9 14 1018.6 1018.6 0.6
26/04:00pm 13.9 9.9 8.1 68 2.9 SW 19 33 10 18 1018.4 1018.4 0.6
26/03:30pm 14.4 10.7 7.9 65 3.2 WSW 17 30 9 16 1018.1 1018.1 0.6
26/03:00pm 13.9 10.9 10.7 81 1.7 SSW 17 33 9 18 1018.0 1018.0 0.6
26/02:30pm 13.7 11.2 9.7 77 2.1 WSW 13 26 7 14 1017.9 1017.9 0.6
26/02:00pm 14.5 10.4 7.8 64 3.3 SW 19 35 10 19 1017.7 1017.7 0.6
26/01:30pm 14.3 11.4 9.5 73 2.5 WSW 15 30 8 16 1017.7 1017.7 0.6
26/01:00pm 13.2 8.9 9.5 78 1.9 WSW 22 43 12 23 1017.8 1017.8 0.6
26/12:30pm 15.0 10.6 6.6 57 4.1 SW 19 28 10 15 1017.7 1017.7 0.6
26/12:00pm 14.1 9.8 6.9 62 3.5 SW 19 30 10 16 1017.9 1017.9 0.6
26/11:30am 13.7 9.7 8.1 69 2.8 SW 19 30 10 16 1018.0 1018.0 0.6
26/11:00am 13.7 9.6 7.9 68 2.9 SW 19 30 10 16 1017.9 1017.9 0.6
26/10:30am 13.2 9.0 7.6 69 2.7 SW 19 32 10 17 1017.9 1017.9 0.6
26/10:00am 11.9 8.9 9.3 84 1.3 SW 15 26 8 14 1018.1 1018.1 0.6
26/09:30am 11.7 9.6 9.9 89 0.9 SW 11 32 6 17 1018.0 1018.0 0.6
26/09:00am 12.2 8.2 9.2 82 1.5 SW 20 43 11 23 1017.7 1017.7 2.0
26/08:30am 12.7 9.0 8.0 73 2.3 SW 17 28 9 15 1017.3 1017.3 2.0
26/08:00am 11.7 8.6 8.9 83 1.4 SSW 15 30 8 16 1017.0 1017.0 2.0
26/07:30am 12.1 8.0 7.8 75 2.1 SW 19 32 10 17 1016.6 1016.6 2.0
26/07:00am 12.9 8.7 7.4 69 2.7 SW 19 30 10 16 1016.1 1016.1 2.0
26/06:30am 12.4 6.9 7.7 73 2.3 SW 26 41 14 22 1015.8 1015.8 2.0
26/06:00am 12.9 9.9 7.8 71 2.5 SW 13 22 7 12 1015.3 1015.3 2.0
26/05:30am 13.1 8.5 8.2 72 2.4 SW 22 39 12 21 1015.0 1015.0 2.0
26/05:00am 13.0 9.0 8.9 76 2.1 SW 20 35 11 19 1014.8 1014.8 2.0
26/04:30am 13.0 9.8 8.3 73 2.3 SW 15 24 8 13 1014.6 1014.6 2.0
26/04:00am 13.0 9.0 8.9 76 2.1 SW 20 35 11 19 1014.4 1014.4 2.0
26/03:30am 13.4 9.3 8.0 70 2.7 SW 19 32 10 17 1014.0 1014.0 2.0
26/03:00am 13.4 9.8 8.5 72 2.4 SW 17 32 9 17 1014.0 1014.0 2.0
26/02:30am 13.5 9.2 7.9 69 2.8 SW 20 32 11 17 1014.0 1014.0 2.0
26/02:00am 13.4 9.7 8.0 70 2.7 SW 17 26 9 14 1014.0 1014.0 2.0
26/01:30am 13.5 9.6 8.6 72 2.5 SW 19 35 10 19 1014.0 1014.0 2.0
26/01:00am 13.5 9.8 8.1 70 2.7 SW 17 28 9 15 1013.7 1013.7 2.0
26/12:30am 13.8 10.1 9.5 75 2.2 SW 19 30 10 16 1013.8 1013.8 2.0
26/12:00am 13.9 9.6 9.5 75 2.3 SW 22 32 12 17 1013.5 1013.5 2.0
 
Date/Time
EST
Tmp

°C
App
Tmp
°C
Dew
Point
°C
Rel
Hum
%
Delta-T

°C
Wind Press
QNH
hPa
Press
MSL
hPa
Rain
since
9 am
mm
Dir
 
Spd
km/h
Gust
km/h
Spd
kts
Gust
kts
25/11:30pm 13.9 10.2 10.1 78 2.0 SSW 20 37 11 20 1013.3 1013.3 2.0
25/11:00pm 13.8 9.8 10.4 80 1.8 SSW 22 35 12 19 1013.2 1013.2 2.0
25/10:30pm 14.0 9.7 10.6 80 1.8 SW 24 39 13 21 1012.9 1012.9 2.0
25/10:00pm 14.3 10.8 10.9 80 1.8 SSW 20 37 11 20 1012.9 1012.9 2.0
25/09:30pm 14.5 11.3 11.3 81 1.7 SSW 19 35 10 19 1012.7 1012.7 2.0
25/09:00pm 14.4 10.7 11.4 82 1.6 SSW 22 41 12 22 1012.3 1012.3 2.0
25/08:30pm 14.5 11.3 11.8 84 1.5 SSW 20 39 11 21 1012.1 1012.1 2.0
25/08:00pm 14.3 10.8 12.2 87 1.1 SSW 22 39 12 21 1011.5 1011.5 2.0
25/07:30pm 14.1 11.1 12.7 91 0.8 SSW 20 37 11 20 1011.1 1011.1 2.0
25/07:00pm 14.8 11.9 13.0 89 1.0 SSW 20 37 11 20 1011.0 1011.0 0.8
25/06:30pm 14.5 12.6 13.0 91 0.8 SSW 15 26 8 14 1010.7 1010.7 0.8
25/06:00pm 14.9 13.2 12.4 85 1.4 SW 13 20 7 11 1010.3 1010.3 0.6
25/05:30pm 14.9 12.7 12.2 84 1.5 SSW 15 24 8 13 1009.9 1009.9 0.6
25/05:00pm 15.0 13.4 12.7 86 1.3 SW 13 22 7 12 1009.6 1009.6 0.6
25/04:30pm 14.8 14.0 13.0 89 1.0 SW 9 17 5 9 1009.5 1009.5 0.6
25/04:00pm 14.8 14.0 12.8 88 1.1 SW 9 17 5 9 1009.3 1009.3 0.4
25/03:30pm 15.6 14.6 12.2 80 1.9 SW 9 13 5 7 1008.9 1008.9 0.4
25/03:00pm 15.7 15.3 12.5 81 1.8 SSW 6 11 3 6 1008.7 1008.7 0.4
25/02:30pm 16.2 15.9 11.6 74 2.5 S 4 7 2 4 1008.4 1008.4 0.4
25/02:00pm 17.2 17.3 13.9 81 1.9 S 6 9 3 5 1008.3 1008.3 0.4
25/01:30pm 15.8 16.5 13.5 86 1.3 SSW 2 6 1 3 1008.2 1008.2 0.4
25/01:00pm 15.3 15.5 13.2 87 1.2 N 4 6 2 3 1008.3 1008.3 0.4
25/12:30pm 14.6 14.7 12.6 88 1.1 N 4 6 2 3 1008.5 1008.5 0.4
25/12:00pm 14.5 14.2 12.7 89 1.0 N 6 9 3 5 1008.6 1008.6 0.4
25/11:30am 14.4 13.6 12.8 90 0.9 N 9 11 5 6 1008.6 1008.6 0.4
25/11:00am 14.1 13.6 12.7 91 0.8 NNW 7 11 4 6 1008.7 1008.7 0.2
25/10:30am 13.7 13.1 12.3 91 0.8 N 7 9 4 5 1008.6 1008.6 0.0
25/10:00am 13.7 13.7 12.4 92 0.7 NW 4 9 2 5 1008.4 1008.4 0.0
25/09:30am 13.4 12.9 12.1 92 0.7 NNW 6 9 3 5 1008.5 1008.5 0.0
25/09:00am 13.2 13.8 11.9 92 0.7 CALM 0 2 0 1 1008.2 1008.2 8.8
25/08:30am 13.1 12.9 11.8 92 0.7 WNW 4 9 2 5 1008.1 1008.1 8.8
25/08:00am 12.8 12.0 11.7 93 0.6 NW 7 11 4 6 1007.9 1007.9 8.8
25/07:30am 12.7 12.1 11.6 93 0.6 NNW 6 9 3 5 1007.4 1007.4 8.8
25/07:00am 12.6 12.4 11.7 94 0.5 WNW 4 9 2 5 1006.9 1006.9 8.8
25/06:30am 12.7 12.1 11.8 94 0.5 NW 6 13 3 7 1006.6 1006.6 8.8
25/06:00am 12.6 12.4 11.8 95 0.4 WNW 4 7 2 4 1006.4 1006.4 8.8
25/05:30am 12.4 12.9 11.5 94 0.5 CALM 0 4 0 2 1006.3 1006.3 8.8
25/05:00am 12.8 12.1 11.9 94 0.5 WNW 7 11 4 6 1005.9 1005.9 8.8
25/04:30am 12.7 12.1 11.6 93 0.6 WNW 6 9 3 5 1005.7 1005.7 8.8
25/04:00am 12.9 12.3 11.8 93 0.6 NW 6 11 3 6 1005.7 1005.7 8.8
25/03:30am 13.1 12.6 12.0 93 0.6 NW 6 11 3 6 1005.7 1005.7 8.8
25/03:00am 13.2 12.2 12.4 95 0.4 NNW 9 13 5 7 1005.9 1005.9 8.8
25/02:30am 13.5 11.6 12.9 96 0.3 N 15 19 8 10 1006.0 1006.0 8.8
25/02:00am 13.4 11.8 12.8 96 0.3 N 13 17 7 9 1006.1 1006.1 8.8
25/01:30am 13.3 11.2 12.5 95 0.4 N 15 17 8 9 1006.2 1006.2 8.8
25/01:00am 13.0 13.0 12.4 96 0.3 NNE 4 6 2 3 1006.2 1006.2 8.8
25/12:30am 12.8 12.7 12.2 96 0.3 SW 4 6 2 3 1006.0 1006.0 8.8
25/12:00am 12.9 13.2 12.1 95 0.4 W 2 6 1 3 1006.0 1006.0 8.4
 
Date/Time
EST
Tmp

°C
App
Tmp
°C
Dew
Point
°C
Rel
Hum
%
Delta-T

°C
Wind Press
QNH
hPa
Press
MSL
hPa
Rain
since
9 am
mm
Dir
 
Spd
km/h
Gust
km/h
Spd
kts
Gust
kts
24/11:30pm 13.0 12.9 12.1 94 0.5 WNW 4 9 2 5 1006.2 1006.2 6.2
24/11:00pm 13.5 11.6 11.7 89 1.0 WNW 13 30 7 16 1006.3 1006.3 1.6
24/10:30pm 15.3 16.3 14.3 94 0.6 NNE 2 4 1 2 1005.5 1005.5 0.2
24/10:00pm 15.2 16.2 14.2 94 0.6 N 2 4 1 2 1005.4 1005.4 0.2
24/09:30pm 15.3 15.5 14.2 93 0.6 N 6 7 3 4 1005.3 1005.3 0.2
24/09:00pm 15.4 15.4 14.3 93 0.6 NNE 7 9 4 5 1005.2 1005.2 0.2
24/08:30pm 15.2 15.6 13.7 91 0.8 ENE 4 6 2 3 1004.9 1004.9 0.2
24/08:00pm 15.4 16.6 13.8 90 0.9 CALM 0 0 0 0 1004.7 1004.7 0.2
24/07:30pm 15.4 15.5 13.8 90 0.9 SW 6 11 3 6 1004.5 1004.5 0.2
24/07:00pm 15.5 15.5 13.7 89 1.0 SSW 6 9 3 5 1004.5 1004.5 0.2
24/06:30pm 15.5 15.8 13.5 88 1.1 SSW 4 9 2 5 1004.3 1004.3 0.2
24/06:00pm 15.6 15.7 13.8 89 1.0 SW 6 11 3 6 1003.9 1003.8 0.2
24/05:30pm 16.0 15.5 13.8 87 1.2 SW 9 17 5 9 1003.6 1003.5 0.2
24/05:00pm 16.7 15.6 12.0 74 2.6 WSW 9 19 5 10 1003.0 1002.9 0.2
24/04:30pm 17.2 16.1 11.9 71 2.9 WSW 9 17 5 9 1002.8 1002.7 0.2
24/04:00pm 18.6 17.8 12.8 69 3.3 W 9 20 5 11 1002.9 1002.8 0.2
24/03:30pm 17.8 16.8 12.3 70 3.0 WNW 9 19 5 10 1002.9 1002.8 0.2
24/03:00pm 17.9 17.1 13.0 73 2.8 WNW 9 19 5 10 1003.0 1002.9 0.2
24/02:30pm 18.1 17.0 13.0 72 2.9 WNW 11 19 6 10 1002.9 1002.8 0.2
24/02:00pm 17.5 17.2 13.4 77 2.3 NW 7 13 4 7 1002.9 1002.8 0.2
24/01:30pm 17.5 17.4 14.0 80 2.0 NW 7 17 4 9 1003.1 1003.0 0.2
24/01:00pm 17.4 16.2 14.1 81 1.9 NNW 13 22 7 12 1003.1 1003.0 0.2
24/12:30pm 17.3 16.8 13.8 80 2.0 WNW 9 17 5 9 1003.5 1003.4 0.2
24/12:00pm 17.2 16.8 14.1 82 1.8 WNW 9 15 5 8 1003.9 1003.8 0.0
24/11:30am 16.7 16.0 14.3 86 1.4 NNW 11 17 6 9 1004.1 1004.0 0.0
24/11:00am 16.6 15.6 14.6 88 1.2 NNW 13 20 7 11 1004.2 1004.2 0.0
24/10:30am 16.1 16.1 14.1 88 1.1 NW 7 19 4 10 1004.4 1004.4 0.0
24/10:00am 15.9 15.1 14.1 89 1.0 NW 11 20 6 11 1004.7 1004.7 0.0
24/09:30am 15.8 15.1 14.3 91 0.9 NNW 11 19 6 10 1004.8 1004.8 0.0
24/09:00am 15.7 14.6 14.4 92 0.7 NNW 13 20 7 11 1004.9 1004.9 0.0

Latest Capital City Observations: Canberra | Sydney | Melbourne | Brisbane | Adelaide | Perth | Hobart | Darwin

Other Formats:

Comma delimited format used in spreadsheet applications
http://www.bom.gov.au/fwo/IDV60901/IDV60901.94892.axf

JavaScript Object Notation format (JSON) in row-major order
http://www.bom.gov.au/fwo/IDV60901/IDV60901.94892.json